Time;durP1;ratioP1;P1;durP2;ratioP2;P2;SDS_P1;SDS_P2;PMS_P1;PMS_P2;Temp;Humidity;BMP_temperature;BMP_pressure;BME280_temperature;BME280_humidity;BME280_pressure;Samples;Min_cycle;Max_cycle;Signal;HPM_P1;HPM_P2
2022/08/21 00:01:02;;;;;;;;;;;;;;;;;;5078482;28;19916;-77
2022/08/21 00:03:27;;;;;;;;;;;;;;;;;;5061773;28;19944;-77
2022/08/21 00:05:53;;;;;;;;;;;;;;;;;;5078531;28;19919;-78
2022/08/21 00:08:18;;;;;;;;;;;;;;;;;;5096302;28;19924;-77
2022/08/21 00:10:44;;;;;;;;;;;;;;;;;;5096315;28;19916;-77
2022/08/21 00:13:10;;;;;;;;;;;;;;;;;;5096732;28;19969;-78
2022/08/21 00:15:35;;;;;;;;;;;;;;;;;;5078256;28;20006;-78
2022/08/21 00:18:01;;;;;;;;;;;;;;;;;;5077997;28;19911;-78
2022/08/21 00:20:26;;;;;;;;;;;;;;;;;;5061310;28;19912;-77
2022/08/21 00:22:52;;;;;;;;;;;;;;;;;;5060870;28;19911;-77
2022/08/21 00:25:17;;;;;;;;;;;;;;;;;;5061219;28;20452;-77
2022/08/21 00:27:43;;;;;;;;;;;;;;;;;;5061137;28;19939;-77
2022/08/21 00:30:09;;;;;;;;;;;;;;;;;;5077916;28;19919;-77
2022/08/21 00:32:34;;;;;;;;;;;;;;;;;;5061225;28;19913;-77
2022/08/21 00:34:59;;;;;;;;;;;;;;;;;;5078545;28;19916;-77
2022/08/21 00:37:25;;;;;;;;;;;;;;;;;;5095801;28;20011;-76
2022/08/21 00:39:50;;;;;;;;;;;;;;;;;;5096118;28;20384;-77
2022/08/21 00:42:15;;;;;;;;;;;;;;;;;;5095870;28;19923;-78
2022/08/21 00:44:44;;;;;;;;;;;;;;;;;;5096291;28;20296;-77
2022/08/21 00:47:10;;;;;;;;;;;;;;;;;;5095823;28;19973;-77
2022/08/21 00:49:36;;;;;;;;;;;;;;;;;;5068766;28;20294;-77
2022/08/21 00:52:01;;;;;;;;;;;;;;;;;;5057886;28;20388;-77
2022/08/21 00:54:27;;;;;;;;;;;;;;;;;;5040653;28;19959;-78
2022/08/21 00:56:54;;;;;;;;;;;;;;;;;;5057317;28;20009;-78
2022/08/21 00:59:19;;;;;;;;;;;;;;;;;;5057424;28;20378;-77
2022/08/21 01:01:45;;;;;;;;;;;;;;;;;;5075187;28;19916;-77
2022/08/21 01:04:10;;;;;;;;;;;;;;;;;;5057242;28;20019;-77
2022/08/21 01:06:36;;;;;;;;;;;;;;;;;;5057354;28;19916;-77
2022/08/21 01:09:02;;;;;;;;;;;;;;;;;;5057272;28;19912;-77
2022/08/21 01:11:27;;;;;;;;;;;;;;;;;;5040409;28;19974;-77
2022/08/21 01:13:52;;;;;;;;;;;;;;;;;;5040208;28;19924;-77
2022/08/21 01:16:19;;;;;;;;;;;;;;;;;;5073542;28;20390;-77
2022/08/21 01:18:44;;;;;;;;;;;;;;;;;;5057282;28;19913;-77
2022/08/21 01:21:11;;;;;;;;;;;;;;;;;;5074919;28;19916;-77
2022/08/21 01:23:38;;;;;;;;;;;;;;;;;;5040022;28;19912;-77
2022/08/21 01:26:03;;;;;;;;;;;;;;;;;;5056741;28;19913;-77
2022/08/21 01:28:30;;;;;;;;;;;;;;;;;;5057194;28;19917;-77
2022/08/21 01:30:55;;;;;;;;;;;;;;;;;;5057141;28;19924;-76
2022/08/21 01:33:21;;;;;;;;;;;;;;;;;;5056545;28;19921;-77
2022/08/21 01:35:46;;;;;;;;;;;;;;;;;;5073755;28;20435;-76
2022/08/21 01:38:11;;;;;;;;;;;;;;;;;;5074597;28;20268;-77
2022/08/21 01:40:37;;;;;;;;;;;;;;;;;;5056355;28;19917;-77
2022/08/21 01:43:02;;;;;;;;;;;;;;;;;;5056334;28;19919;-78
2022/08/21 01:45:28;;;;;;;;;;;;;;;;;;5056414;28;19916;-77
2022/08/21 01:47:53;;;;;;;;;;;;;;;;;;5074412;28;20392;-77
2022/08/21 01:50:19;;;;;;;;;;;;;;;;;;5087557;28;19924;-77
2022/08/21 01:52:44;;;;;;;;;;;;;;;;;;5094863;28;19916;-77
2022/08/21 01:55:10;;;;;;;;;;;;;;;;;;5059554;28;19920;-77
2022/08/21 01:57:35;;;;;;;;;;;;;;;;;;5059498;28;20370;-77
2022/08/21 02:00:01;;;;;;;;;;;;;;;;;;5076037;28;20387;-77
2022/08/21 02:02:26;;;;;;;;;;;;;;;;;;5076378;28;19912;-77
2022/08/21 02:04:51;;;;;;;;;;;;;;;;;;5059323;28;19912;-77
2022/08/21 02:07:17;;;;;;;;;;;;;;;;;;5075983;28;19920;-77
2022/08/21 02:09:42;;;;;;;;;;;;;;;;;;5094130;28;19916;-77
2022/08/21 02:12:08;;;;;;;;;;;;;;;;;;5094068;28;19969;-77
2022/08/21 02:14:34;;;;;;;;;;;;;;;;;;5076797;28;19920;-77
2022/08/21 02:16:59;;;;;;;;;;;;;;;;;;5094201;28;19916;-77
2022/08/21 02:19:24;;;;;;;;;;;;;;;;;;5059140;28;19924;-77
2022/08/21 02:21:49;;;;;;;;;;;;;;;;;;5093833;28;20325;-77
2022/08/21 02:24:15;;;;;;;;;;;;;;;;;;5093968;28;19959;-77
2022/08/21 02:26:40;;;;;;;;;;;;;;;;;;5094045;28;19916;-77
2022/08/21 02:29:05;;;;;;;;;;;;;;;;;;5093938;28;20015;-77
2022/08/21 02:31:31;;;;;;;;;;;;;;;;;;5059004;28;19912;-77
2022/08/21 02:33:56;;;;;;;;;;;;;;;;;;5075714;28;20068;-77
2022/08/21 02:36:21;;;;;;;;;;;;;;;;;;5075768;28;20385;-77
2022/08/21 02:38:47;;;;;;;;;;;;;;;;;;5094011;28;19916;-77
2022/08/21 02:41:13;;;;;;;;;;;;;;;;;;5093626;28;19962;-77
2022/08/21 02:43:39;;;;;;;;;;;;;;;;;;5075873;28;20362;-77
2022/08/21 02:46:04;;;;;;;;;;;;;;;;;;5075413;28;19918;-77
2022/08/21 02:48:30;;;;;;;;;;;;;;;;;;5075748;28;20329;-77
2022/08/21 02:50:57;;;;;;;;;;;;;;;;;;5075410;28;19920;-77
2022/08/21 02:53:22;;;;;;;;;;;;;;;;;;5076496;28;20262;-77
2022/08/21 02:55:48;;;;;;;;;;;;;;;;;;5058590;28;19936;-77
2022/08/21 02:58:15;;;;;;;;;;;;;;;;;;5075472;28;19990;-77
2022/08/21 03:00:40;;;;;;;;;;;;;;;;;;5058706;28;20385;-77
2022/08/21 03:03:06;;;;;;;;;;;;;;;;;;5075650;28;19920;-77
2022/08/21 03:05:32;;;;;;;;;;;;;;;;;;5075321;28;20397;-77
2022/08/21 03:07:58;;;;;;;;;;;;;;;;;;5075597;28;19916;-77
2022/08/21 03:10:24;;;;;;;;;;;;;;;;;;5058629;28;19918;-78
2022/08/21 03:12:50;;;;;;;;;;;;;;;;;;5058766;28;20117;-78
2022/08/21 03:15:17;;;;;;;;;;;;;;;;;;5075749;28;19955;-77
2022/08/21 03:17:42;;;;;;;;;;;;;;;;;;5058434;28;19920;-77
2022/08/21 03:20:08;;;;;;;;;;;;;;;;;;5075472;28;20256;-77
2022/08/21 03:22:34;;;;;;;;;;;;;;;;;;5075380;28;19973;-77
2022/08/21 03:24:59;;;;;;;;;;;;;;;;;;5075547;28;19965;-76
2022/08/21 03:27:26;;;;;;;;;;;;;;;;;;5093476;28;20019;-76
2022/08/21 03:29:52;;;;;;;;;;;;;;;;;;5093475;28;19916;-77
2022/08/21 03:32:17;;;;;;;;;;;;;;;;;;5058360;28;20419;-77
2022/08/21 03:34:42;;;;;;;;;;;;;;;;;;5075108;28;19957;-76
2022/08/21 03:37:08;;;;;;;;;;;;;;;;;;5075392;28;20358;-77
2022/08/21 03:39:33;;;;;;;;;;;;;;;;;;5075075;28;19916;-77
2022/08/21 03:41:59;;;;;;;;;;;;;;;;;;5075086;28;19912;-77
2022/08/21 03:44:25;;;;;;;;;;;;;;;;;;5093443;28;19976;-76
2022/08/21 03:46:50;;;;;;;;;;;;;;;;;;5093316;28;19916;-77
2022/08/21 03:49:16;;;;;;;;;;;;;;;;;;5075043;28;19969;-77
2022/08/21 03:51:41;;;;;;;;;;;;;;;;;;5074887;28;19938;-77
2022/08/21 03:54:06;;;;;;;;;;;;;;;;;;5058380;28;20010;-78
2022/08/21 03:56:31;;;;;;;;;;;;;;;;;;5074992;28;19912;-78
2022/08/21 03:58:57;;;;;;;;;;;;;;;;;;5061058;28;19912;-78
2022/08/21 04:01:22;;;;;;;;;;;;;;;;;;5096770;28;19916;-77
2022/08/21 04:03:47;;;;;;;;;;;;;;;;;;5078730;28;19920;-76
2022/08/21 04:06:13;;;;;;;;;;;;;;;;;;5061680;28;19912;-77
2022/08/21 04:08:38;;;;;;;;;;;;;;;;;;5061401;28;19920;-77
2022/08/21 04:11:03;;;;;;;;;;;;;;;;;;5096642;28;19912;-77
2022/08/21 04:13:28;;;;;;;;;;;;;;;;;;5096538;28;20240;-77
2022/08/21 04:15:54;;;;;;;;;;;;;;;;;;5061427;28;19912;-77
2022/08/21 04:18:20;;;;;;;;;;;;;;;;;;5078367;28;19916;-77
2022/08/21 04:20:46;;;;;;;;;;;;;;;;;;5061344;28;19919;-77
2022/08/21 04:23:11;;;;;;;;;;;;;;;;;;5078352;28;20290;-77
2022/08/21 04:25:37;;;;;;;;;;;;;;;;;;5077875;28;19923;-77
2022/08/21 04:28:02;;;;;;;;;;;;;;;;;;5096400;28;19936;-77
2022/08/21 04:30:27;;;;;;;;;;;;;;;;;;5096083;28;20017;-77
2022/08/21 04:32:53;;;;;;;;;;;;;;;;;;5078059;28;19912;-77
2022/08/21 04:35:21;;;;;;;;;;;;;;;;;;5078108;28;19912;-77
2022/08/21 04:37:46;;;;;;;;;;;;;;;;;;5078413;28;20370;-77
2022/08/21 04:40:13;;;;;;;;;;;;;;;;;;5061311;28;19950;-77
2022/08/21 04:42:44;;;;;;;;;;;;;;;;;;5078388;28;19934;-77
2022/08/21 04:45:09;;;;;;;;;;;;;;;;;;5078429;28;19927;-77
2022/08/21 04:47:34;;;;;;;;;;;;;;;;;;5096357;28;19920;-77
2022/08/21 04:49:59;;;;;;;;;;;;;;;;;;5095960;28;19997;-77
2022/08/21 04:52:25;;;;;;;;;;;;;;;;;;5094693;28;19959;-76
2022/08/21 04:54:51;;;;;;;;;;;;;;;;;;5094664;28;19991;-77
2022/08/21 04:57:17;;;;;;;;;;;;;;;;;;5061153;28;19919;-76
2022/08/21 04:59:44;;;;;;;;;;;;;;;;;;5061046;28;19912;-77
2022/08/21 05:02:09;;;;;;;;;;;;;;;;;;5061087;28;19961;-77
2022/08/21 05:04:36;;;;;;;;;;;;;;;;;;5078852;28;19912;-76
2022/08/21 05:07:02;;;;;;;;;;;;;;;;;;5061027;28;19966;-77
2022/08/21 05:09:27;;;;;;;;;;;;;;;;;;5077080;28;19912;-77
2022/08/21 05:11:53;;;;;;;;;;;;;;;;;;5079396;28;19912;-76
2022/08/21 05:14:19;;;;;;;;;;;;;;;;;;5061807;28;20019;-77
2022/08/21 05:16:44;;;;;;;;;;;;;;;;;;5096831;28;19916;-76
2022/08/21 05:19:10;;;;;;;;;;;;;;;;;;5078356;28;19924;-76
2022/08/21 05:21:35;;;;;;;;;;;;;;;;;;5061835;28;19919;-77
2022/08/21 05:24:01;;;;;;;;;;;;;;;;;;5060866;28;19912;-77
2022/08/21 05:26:26;;;;;;;;;;;;;;;;;;5077868;28;19955;-76
2022/08/21 05:28:51;;;;;;;;;;;;;;;;;;5060823;28;19939;-77
2022/08/21 05:31:17;;;;;;;;;;;;;;;;;;5079255;28;20282;-77
2022/08/21 05:33:42;;;;;;;;;;;;;;;;;;5094125;28;19916;-77
2022/08/21 05:36:07;;;;;;;;;;;;;;;;;;5078652;28;19920;-77
2022/08/21 05:38:33;;;;;;;;;;;;;;;;;;5096197;28;20011;-76
2022/08/21 05:40:58;;;;;;;;;;;;;;;;;;5096468;28;19923;-77
2022/08/21 05:43:23;;;;;;;;;;;;;;;;;;5096652;28;19916;-76
2022/08/21 05:45:48;;;;;;;;;;;;;;;;;;5096935;28;20440;-76
2022/08/21 05:48:13;;;;;;;;;;;;;;;;;;5078032;28;19982;-77
2022/08/21 05:50:39;;;;;;;;;;;;;;;;;;5060997;28;19949;-77
2022/08/21 05:53:05;;;;;;;;;;;;;;;;;;5058340;28;20385;-77
2022/08/21 05:55:30;;;;;;;;;;;;;;;;;;5058067;28;20006;-77
2022/08/21 05:57:55;;;;;;;;;;;;;;;;;;5058428;28;19920;-77
2022/08/21 06:00:22;;;;;;;;;;;;;;;;;;5058800;28;19960;-77
2022/08/21 06:02:48;;;;;;;;;;;;;;;;;;5059882;28;20405;-76
2022/08/21 06:05:13;;;;;;;;;;;;;;;;;;5076353;28;19916;-77
2022/08/21 06:07:39;;;;;;;;;;;;;;;;;;5076377;28;19966;-77
2022/08/21 06:10:04;;;;;;;;;;;;;;;;;;5041079;28;20017;-78
2022/08/21 06:12:29;;;;;;;;;;;;;;;;;;5057318;28;20347;-78
2022/08/21 06:14:54;;;;;;;;;;;;;;;;;;5076034;28;19920;-78
2022/08/21 06:17:20;;;;;;;;;;;;;;;;;;5076289;28;20294;-78
2022/08/21 06:19:45;;;;;;;;;;;;;;;;;;5059142;28;19917;-78
2022/08/21 06:22:10;;;;;;;;;;;;;;;;;;5058490;28;19919;-77
2022/08/21 06:24:36;;;;;;;;;;;;;;;;;;5076385;28;19917;-77
2022/08/21 06:27:05;;;;;;;;;;;;;;;;;;5059216;28;19920;-78
2022/08/21 06:29:30;;;;;;;;;;;;;;;;;;5077163;28;20436;-78
2022/08/21 06:31:55;;;;;;;;;;;;;;;;;;5077734;28;19966;-77
2022/08/21 06:34:21;;;;;;;;;;;;;;;;;;5077689;28;19985;-80
2022/08/21 06:36:46;;;;;;;;;;;;;;;;;;5059678;28;20333;-79
2022/08/21 06:39:13;;;;;;;;;;;;;;;;;;5078124;28;19917;-79
2022/08/21 06:41:38;;;;;;;;;;;;;;;;;;5059580;28;19927;-79
2022/08/21 06:44:03;;;;;;;;;;;;;;;;;;5058535;28;20363;-79
2022/08/21 06:46:29;;;;;;;;;;;;;;;;;;5075288;28;19916;-80
2022/08/21 06:48:54;;;;;;;;;;;;;;;;;;5045087;28;20014;-80
2022/08/21 06:51:20;;;;;;;;;;;;;;;;;;5096864;28;19916;-79
2022/08/21 06:53:45;;;;;;;;;;;;;;;;;;5096291;28;19919;-81
2022/08/21 06:56:11;;;;;;;;;;;;;;;;;;5078476;28;19912;-80
2022/08/21 06:58:36;;;;;;;;;;;;;;;;;;5078226;28;19922;-81
2022/08/21 07:01:01;;;;;;;;;;;;;;;;;;5078700;28;19916;-81
2022/08/21 07:03:28;;;;;;;;;;;;;;;;;;5061175;28;19919;-81
2022/08/21 07:05:53;;;;;;;;;;;;;;;;;;5061241;28;19912;-81
2022/08/21 07:08:19;;;;;;;;;;;;;;;;;;5078588;28;19938;-81
2022/08/21 07:10:44;;;;;;;;;;;;;;;;;;5078442;28;19919;-81
2022/08/21 07:13:09;;;;;;;;;;;;;;;;;;5095814;28;19916;-81
2022/08/21 07:15:35;;;;;;;;;;;;;;;;;;5061933;28;19922;-83
2022/08/21 07:18:00;;;;;;;;;;;;;;;;;;5096470;28;20012;-82
2022/08/21 07:20:26;;;;;;;;;;;;;;;;;;5078550;28;20294;-82
2022/08/21 07:22:51;;;;;;;;;;;;;;;;;;5061890;28;19912;-84
2022/08/21 07:25:17;;;;;;;;;;;;;;;;;;5078615;28;19961;-82
2022/08/21 07:27:42;;;;;;;;;;;;;;;;;;5095098;28;19926;-81
2022/08/21 07:30:07;;;;;;;;;;;;;;;;;;5078403;28;19920;-81
2022/08/21 07:32:33;;;;;;;;;;;;;;;;;;5078437;28;19916;-81
2022/08/21 07:34:58;;;;;;;;;;;;;;;;;;5099793;28;19966;-81
2022/08/21 07:37:24;;;;;;;;;;;;;;;;;;5064614;28;20435;-83
2022/08/21 07:39:50;;;;;;;;;;;;;;;;;;5081629;28;19933;-81
2022/08/21 07:42:16;;;;;;;;;;;;;;;;;;5081807;28;19919;-79
2022/08/21 07:44:42;;;;;;;;;;;;;;;;;;5081088;28;19983;-79
2022/08/21 07:47:07;;;;;;;;;;;;;;;;;;5081545;28;19920;-79
2022/08/21 07:49:33;;;;;;;;;;;;;;;;;;5098834;28;19962;-79
2022/08/21 07:51:58;;;;;;;;;;;;;;;;;;5079848;28;20317;-78
2022/08/21 07:54:23;;;;;;;;;;;;;;;;;;5099120;28;19961;-79
2022/08/21 07:56:50;;;;;;;;;;;;;;;;;;5080128;28;20144;-79
2022/08/21 07:59:15;;;;;;;;;;;;;;;;;;5096533;28;19916;-80
2022/08/21 08:01:41;;;;;;;;;;;;;;;;;;5079811;28;19916;-79
2022/08/21 08:04:06;;;;;;;;;;;;;;;;;;5096839;28;19962;-80
2022/08/21 08:06:31;;;;;;;;;;;;;;;;;;5078846;28;19920;-79
2022/08/21 08:08:57;;;;;;;;;;;;;;;;;;5061959;28;19916;-80
2022/08/21 08:11:22;;;;;;;;;;;;;;;;;;5097012;28;19916;-81
2022/08/21 08:13:48;;;;;;;;;;;;;;;;;;5096914;28;20065;-77
2022/08/21 08:16:14;;;;;;;;;;;;;;;;;;5078890;28;19964;-79
2022/08/21 08:18:40;;;;;;;;;;;;;;;;;;5078653;28;19912;-78
2022/08/21 08:21:05;;;;;;;;;;;;;;;;;;5078769;28;20002;-79
2022/08/21 08:23:31;;;;;;;;;;;;;;;;;;5078785;28;20447;-82
2022/08/21 08:25:57;;;;;;;;;;;;;;;;;;5061601;28;20432;-79
2022/08/21 08:28:22;;;;;;;;;;;;;;;;;;5096677;28;19916;-78
2022/08/21 08:30:49;;;;;;;;;;;;;;;;;;5078633;28;19923;-80
2022/08/21 08:33:14;;;;;;;;;;;;;;;;;;5080091;28;19912;-78
2022/08/21 08:35:40;;;;;;;;;;;;;;;;;;5078488;28;20366;-80
2022/08/21 08:38:05;;;;;;;;;;;;;;;;;;5078539;28;19919;-78
2022/08/21 08:40:38;;;;;;;;;;;;;;;;;;5095825;28;19938;-79
2022/08/21 08:43:05;;;;;;;;;;;;;;;;;;5077861;28;20367;-79
2022/08/21 08:45:30;;;;;;;;;;;;;;;;;;5078280;28;20425;-79
2022/08/21 08:48:00;;;;;;;;;;;;;;;;;;5077985;28;19958;-80
2022/08/21 08:50:41;;;;;;;;;;;;;;;;;;5062343;28;20062;-79
2022/08/21 08:53:09;;;;;;;;;;;;;;;;;;5075974;28;20371;-80
2022/08/21 08:55:36;;;;;;;;;;;;;;;;;;5041358;28;20325;-80
2022/08/21 08:58:02;;;;;;;;;;;;;;;;;;5057750;28;19912;-79
2022/08/21 09:00:28;;;;;;;;;;;;;;;;;;5058138;28;20021;-79
2022/08/21 09:02:55;;;;;;;;;;;;;;;;;;5058041;28;20389;-79
2022/08/21 09:05:30;;;;;;;;;;;;;;;;;;5041106;28;19912;-79
2022/08/21 09:07:55;;;;;;;;;;;;;;;;;;5057491;28;19924;-79
2022/08/21 09:10:30;;;;;;;;;;;;;;;;;;5075670;28;19916;-78
2022/08/21 09:13:10;;;;;;;;;;;;;;;;;;5075375;28;19920;-78
2022/08/21 09:15:38;;;;;;;;;;;;;;;;;;5057538;28;19924;-77
2022/08/21 09:18:11;;;;;;;;;;;;;;;;;;5041370;28;20354;-76
2022/08/21 09:20:36;;;;;;;;;;;;;;;;;;5057680;28;19919;-79
2022/08/21 09:23:01;;;;;;;;;;;;;;;;;;5075311;28;19995;-80
2022/08/21 09:25:28;;;;;;;;;;;;;;;;;;5075255;28;19912;-80
2022/08/21 09:27:53;;;;;;;;;;;;;;;;;;5058565;28;20434;-78
2022/08/21 09:30:19;;;;;;;;;;;;;;;;;;5043190;28;19956;-80
2022/08/21 09:32:45;;;;;;;;;;;;;;;;;;5058397;28;19913;-79
2022/08/21 09:35:10;;;;;;;;;;;;;;;;;;5057241;28;20427;-79
2022/08/21 09:37:46;;;;;;;;;;;;;;;;;;5075188;28;19920;-79
2022/08/21 09:40:15;;;;;;;;;;;;;;;;;;5057235;28;19969;-79
2022/08/21 09:42:41;;;;;;;;;;;;;;;;;;5057459;28;19920;-79
2022/08/21 09:45:08;;;;;;;;;;;;;;;;;;5057168;28;19916;-78
2022/08/21 09:47:34;;;;;;;;;;;;;;;;;;5040156;28;19921;-79
2022/08/21 09:50:07;;;;;;;;;;;;;;;;;;5053294;28;19927;-78
2022/08/21 09:52:32;;;;;;;;;;;;;;;;;;5076897;28;19912;-79
2022/08/21 09:54:58;;;;;;;;;;;;;;;;;;5092878;28;19927;-79
2022/08/21 09:57:45;;;;;;;;;;;;;;;;;;5093529;28;19916;-78
2022/08/21 10:00:31;;;;;;;;;;;;;;;;;;5064404;28;20346;-77
2022/08/21 10:03:18;;;;;;;;;;;;;;;;;;5077730;28;19912;-79
2022/08/21 10:05:52;;;;;;;;;;;;;;;;;;5096074;28;20003;-78
2022/08/21 10:08:18;;;;;;;;;;;;;;;;;;5096832;28;19916;-79
2022/08/21 10:10:44;;;;;;;;;;;;;;;;;;5078775;28;20019;-79
2022/08/21 10:13:25;;;;;;;;;;;;;;;;;;5097283;28;19959;-79
2022/08/21 10:15:56;;;;;;;;;;;;;;;;;;5096380;28;19916;-78
2022/08/21 10:18:39;;;;;;;;;;;;;;;;;;5077976;28;20271;-78
2022/08/21 10:21:09;;;;;;;;;;;;;;;;;;5078525;28;19916;-79
2022/08/21 10:23:40;;;;;;;;;;;;;;;;;;5077486;28;19912;-78
2022/08/21 10:26:06;;;;;;;;;;;;;;;;;;5077479;28;19912;-78
2022/08/21 10:28:32;;;;;;;;;;;;;;;;;;5095826;28;19988;-78
2022/08/21 10:31:04;;;;;;;;;;;;;;;;;;5061181;28;20315;-79
2022/08/21 10:33:33;;;;;;;;;;;;;;;;;;5077781;28;19937;-78
2022/08/21 10:36:01;;;;;;;;;;;;;;;;;;5059459;28;20301;-79
2022/08/21 10:38:34;;;;;;;;;;;;;;;;;;5094745;28;19913;-79
2022/08/21 10:41:06;;;;;;;;;;;;;;;;;;5076693;28;19912;-78
2022/08/21 10:43:34;;;;;;;;;;;;;;;;;;5094697;28;19925;-79
2022/08/21 10:46:17;;;;;;;;;;;;;;;;;;5094456;28;19917;-79
2022/08/21 10:48:55;;;;;;;;;;;;;;;;;;5094041;28;20263;-79
2022/08/21 10:51:40;;;;;;;;;;;;;;;;;;5059450;28;20382;-79
2022/08/21 10:54:17;;;;;;;;;;;;;;;;;;5094803;28;19919;-79
2022/08/21 10:56:42;;;;;;;;;;;;;;;;;;5075947;28;19912;-80
2022/08/21 10:59:23;;;;;;;;;;;;;;;;;;5093870;28;19943;-79
2022/08/21 11:01:51;;;;;;;;;;;;;;;;;;5076196;28;19923;-79
2022/08/21 11:04:20;;;;;;;;;;;;;;;;;;5093893;28;19955;-80
2022/08/21 11:07:15;;;;;;;;;;;;;;;;;;5060240;28;19968;-79
2022/08/21 11:09:40;;;;;;;;;;;;;;;;;;5068151;28;19920;-78
2022/08/21 11:12:18;;;;;;;;;;;;;;;;;;5079719;28;20268;-78
2022/08/21 11:14:52;;;;;;;;;;;;;;;;;;5063059;28;19924;-78
2022/08/21 11:17:29;;;;;;;;;;;;;;;;;;5080097;28;19923;-79
2022/08/21 11:20:23;;;;;;;;;;;;;;;;;;5080158;28;19912;-79
2022/08/21 11:22:58;;;;;;;;;;;;;;;;;;5025613;28;20032;-80
2022/08/21 11:25:29;;;;;;;;;;;;;;;;;;5062830;28;19919;-79
2022/08/21 11:28:14;;;;;;;;;;;;;;;;;;5097882;28;19950;-79
2022/08/21 11:30:44;;;;;;;;;;;;;;;;;;5083349;28;20362;-79
2022/08/21 11:33:28;;;;;;;;;;;;;;;;;;5079388;28;20329;-77
2022/08/21 11:35:55;;;;;;;;;;;;;;;;;;5079456;28;19912;-79
2022/08/21 11:38:50;;;;;;;;;;;;;;;;;;5062570;28;20385;-80
2022/08/21 11:41:28;;;;;;;;;;;;;;;;;;5080020;28;20317;-81
2022/08/21 11:43:55;;;;;;;;;;;;;;;;;;5062413;28;19945;-78
2022/08/21 11:46:36;;;;;;;;;;;;;;;;;;5097292;28;19916;-81
2022/08/21 11:49:05;;;;;;;;;;;;;;;;;;5074969;28;19920;-82
2022/08/21 11:51:32;;;;;;;;;;;;;;;;;;5042627;28;20282;-81
2022/08/21 11:54:16;;;;;;;;;;;;;;;;;;5042424;28;19912;-80
2022/08/21 11:57:02;;;;;;;;;;;;;;;;;;5077111;28;19913;-80
2022/08/21 11:59:47;;;;;;;;;;;;;;;;;;5076198;28;19912;-80
2022/08/21 12:02:17;;;;;;;;;;;;;;;;;;5059279;28;20003;-80
2022/08/21 12:04:45;;;;;;;;;;;;;;;;;;5059017;28;19912;-81
2022/08/21 12:07:12;;;;;;;;;;;;;;;;;;5042188;28;20296;-80
2022/08/21 12:09:38;;;;;;;;;;;;;;;;;;5058978;28;19913;-80
2022/08/21 12:12:06;;;;;;;;;;;;;;;;;;5059028;28;19912;-80
2022/08/21 12:14:39;;;;;;;;;;;;;;;;;;5041980;28;20283;-79
2022/08/21 12:17:05;;;;;;;;;;;;;;;;;;5041973;28;19923;-80
2022/08/21 12:19:31;;;;;;;;;;;;;;;;;;5041170;28;20291;-79
2022/08/21 12:21:56;;;;;;;;;;;;;;;;;;5058496;28;19912;-79
2022/08/21 12:24:27;;;;;;;;;;;;;;;;;;5076559;28;19913;-79
2022/08/21 12:26:55;;;;;;;;;;;;;;;;;;5076220;28;19912;-80
2022/08/21 12:29:23;;;;;;;;;;;;;;;;;;5076250;28;19922;-79
2022/08/21 12:31:55;;;;;;;;;;;;;;;;;;5058377;28;19923;-79
2022/08/21 12:34:21;;;;;;;;;;;;;;;;;;5058162;28;19956;-79
2022/08/21 12:36:48;;;;;;;;;;;;;;;;;;5058273;28;19962;-79
2022/08/21 12:39:17;;;;;;;;;;;;;;;;;;5058177;28;19912;-79
2022/08/21 12:41:48;;;;;;;;;;;;;;;;;;5041732;28;20010;-79
2022/08/21 12:44:14;;;;;;;;;;;;;;;;;;5076091;28;19916;-80
2022/08/21 12:46:43;;;;;;;;;;;;;;;;;;5058104;28;19923;-79
2022/08/21 12:49:26;;;;;;;;;;;;;;;;;;5062566;28;20028;-79
2022/08/21 12:51:56;;;;;;;;;;;;;;;;;;5061236;28;19962;-79
2022/08/21 12:54:23;;;;;;;;;;;;;;;;;;5061163;28;20393;-79
2022/08/21 12:56:55;;;;;;;;;;;;;;;;;;5077852;28;19917;-80
2022/08/21 12:59:20;;;;;;;;;;;;;;;;;;5077886;28;19991;-78
2022/08/21 13:01:47;;;;;;;;;;;;;;;;;;5060986;28;19973;-78
2022/08/21 13:04:16;;;;;;;;;;;;;;;;;;5060855;28;19919;-78
2022/08/21 13:06:43;;;;;;;;;;;;;;;;;;5078072;28;19912;-79
2022/08/21 13:09:10;;;;;;;;;;;;;;;;;;5060888;28;19940;-79
2022/08/21 13:11:35;;;;;;;;;;;;;;;;;;5078169;28;19935;-79
2022/08/21 13:14:01;;;;;;;;;;;;;;;;;;5060874;28;20361;-79
2022/08/21 13:16:27;;;;;;;;;;;;;;;;;;5077486;28;20024;-78
2022/08/21 13:19:04;;;;;;;;;;;;;;;;;;5077500;28;19916;-78
2022/08/21 13:21:31;;;;;;;;;;;;;;;;;;5077619;28;19916;-79
2022/08/21 13:24:15;;;;;;;;;;;;;;;;;;5077588;28;19916;-79
2022/08/21 13:26:40;;;;;;;;;;;;;;;;;;5077189;28;20374;-78
2022/08/21 13:29:07;;;;;;;;;;;;;;;;;;5095489;28;19928;-79
2022/08/21 13:31:33;;;;;;;;;;;;;;;;;;5094457;28;19920;-77
2022/08/21 13:33:58;;;;;;;;;;;;;;;;;;5095387;28;19973;-77
2022/08/21 13:36:24;;;;;;;;;;;;;;;;;;5095295;28;19916;-78
2022/08/21 13:38:50;;;;;;;;;;;;;;;;;;5095438;28;19975;-79
2022/08/21 13:41:15;;;;;;;;;;;;;;;;;;5077365;28;19912;-79
2022/08/21 13:43:45;;;;;;;;;;;;;;;;;;5095206;28;19920;-79
2022/08/21 13:46:10;;;;;;;;;;;;;;;;;;5061042;28;19916;-79
2022/08/21 13:48:35;;;;;;;;;;;;;;;;;;5076732;28;20382;-79
2022/08/21 13:51:01;;;;;;;;;;;;;;;;;;5076729;28;20501;-78
2022/08/21 13:53:30;;;;;;;;;;;;;;;;;;5060057;28;19912;-78
2022/08/21 13:55:56;;;;;;;;;;;;;;;;;;5059976;28;19912;-79
2022/08/21 13:58:26;;;;;;;;;;;;;;;;;;5095358;28;20271;-78
2022/08/21 14:00:52;;;;;;;;;;;;;;;;;;5059880;28;20275;-79
2022/08/21 14:03:43;;;;;;;;;;;;;;;;;;5076838;28;19919;-79
2022/08/21 14:06:13;;;;;;;;;;;;;;;;;;5073247;28;19916;-78
2022/08/21 14:08:40;;;;;;;;;;;;;;;;;;5076630;28;19920;-79
2022/08/21 14:11:09;;;;;;;;;;;;;;;;;;5059950;28;20010;-79
2022/08/21 14:13:34;;;;;;;;;;;;;;;;;;5076595;28;19916;-79
2022/08/21 14:16:01;;;;;;;;;;;;;;;;;;5094686;28;19920;-79
2022/08/21 14:18:26;;;;;;;;;;;;;;;;;;5059614;28;19918;-78
2022/08/21 14:20:52;;;;;;;;;;;;;;;;;;5076465;28;20014;-78
2022/08/21 14:23:27;;;;;;;;;;;;;;;;;;5059719;28;19919;-78
2022/08/21 14:25:52;;;;;;;;;;;;;;;;;;5094304;28;19912;-78
2022/08/21 14:28:20;;;;;;;;;;;;;;;;;;5076254;28;19916;-78
2022/08/21 14:30:45;;;;;;;;;;;;;;;;;;5059517;28;19923;-79
2022/08/21 14:33:18;;;;;;;;;;;;;;;;;;5059568;28;19912;-79
2022/08/21 14:35:44;;;;;;;;;;;;;;;;;;5059525;28;20321;-79
2022/08/21 14:38:16;;;;;;;;;;;;;;;;;;5076094;28;20010;-79
2022/08/21 14:40:42;;;;;;;;;;;;;;;;;;5059272;28;19912;-79
2022/08/21 14:43:08;;;;;;;;;;;;;;;;;;5058909;28;19923;-79
2022/08/21 14:45:33;;;;;;;;;;;;;;;;;;5075890;28;20297;-79
2022/08/21 14:47:58;;;;;;;;;;;;;;;;;;5076161;28;19920;-78
2022/08/21 14:50:24;;;;;;;;;;;;;;;;;;5059150;28;19920;-79
2022/08/21 14:52:49;;;;;;;;;;;;;;;;;;5059303;28;19996;-79
2022/08/21 14:55:17;;;;;;;;;;;;;;;;;;5094270;28;19960;-79
2022/08/21 14:57:45;;;;;;;;;;;;;;;;;;5059122;28;19912;-79
2022/08/21 15:00:11;;;;;;;;;;;;;;;;;;5076228;28;19919;-78
2022/08/21 15:02:36;;;;;;;;;;;;;;;;;;5059161;28;20263;-79
2022/08/21 15:05:02;;;;;;;;;;;;;;;;;;5075769;28;19924;-79
2022/08/21 15:07:27;;;;;;;;;;;;;;;;;;5058930;28;20426;-79
2022/08/21 15:09:52;;;;;;;;;;;;;;;;;;5075681;28;19916;-79
2022/08/21 15:12:18;;;;;;;;;;;;;;;;;;5075637;28;20386;-79
2022/08/21 15:14:43;;;;;;;;;;;;;;;;;;5076085;28;20007;-79
2022/08/21 15:17:09;;;;;;;;;;;;;;;;;;5094025;28;20324;-79
2022/08/21 15:19:34;;;;;;;;;;;;;;;;;;5075918;28;19916;-79
2022/08/21 15:22:02;;;;;;;;;;;;;;;;;;5075691;28;20005;-78
2022/08/21 15:24:33;;;;;;;;;;;;;;;;;;5059257;28;19912;-78
2022/08/21 15:26:59;;;;;;;;;;;;;;;;;;5060543;28;19938;-79
2022/08/21 15:29:25;;;;;;;;;;;;;;;;;;5061789;28;19912;-79
2022/08/21 15:31:51;;;;;;;;;;;;;;;;;;5077607;28;19923;-78
2022/08/21 15:34:18;;;;;;;;;;;;;;;;;;5094675;28;19916;-80
2022/08/21 15:36:43;;;;;;;;;;;;;;;;;;5058774;28;19916;-79
2022/08/21 15:39:08;;;;;;;;;;;;;;;;;;5058670;28;19919;-83
2022/08/21 15:41:34;;;;;;;;;;;;;;;;;;5075572;28;20377;-78
2022/08/21 15:43:59;;;;;;;;;;;;;;;;;;5075468;28;19916;-78
2022/08/21 15:46:25;;;;;;;;;;;;;;;;;;5093369;28;19992;-77
2022/08/21 15:48:50;;;;;;;;;;;;;;;;;;5093744;28;19920;-77
2022/08/21 15:51:16;;;;;;;;;;;;;;;;;;5093757;28;19932;-77
2022/08/21 15:53:42;;;;;;;;;;;;;;;;;;5076920;28;19912;-78
2022/08/21 15:56:23;;;;;;;;;;;;;;;;;;5062205;28;19920;-79
2022/08/21 15:58:57;;;;;;;;;;;;;;;;;;5079326;28;19923;-80
2022/08/21 16:01:22;;;;;;;;;;;;;;;;;;5078980;28;20312;-77
2022/08/21 16:03:48;;;;;;;;;;;;;;;;;;5062160;28;20004;-78
2022/08/21 16:06:13;;;;;;;;;;;;;;;;;;5078687;28;19916;-80
2022/08/21 16:08:38;;;;;;;;;;;;;;;;;;5095463;28;19920;-79
2022/08/21 16:11:03;;;;;;;;;;;;;;;;;;5078677;28;20073;-78
2022/08/21 16:13:31;;;;;;;;;;;;;;;;;;5096956;28;19923;-78
2022/08/21 16:15:56;;;;;;;;;;;;;;;;;;5061903;28;19916;-78
2022/08/21 16:18:22;;;;;;;;;;;;;;;;;;5078477;28;19922;-79
2022/08/21 16:20:48;;;;;;;;;;;;;;;;;;5096602;28;19962;-78
2022/08/21 16:23:13;;;;;;;;;;;;;;;;;;5079892;28;19916;-79
2022/08/21 16:25:38;;;;;;;;;;;;;;;;;;5061799;28;19916;-80
2022/08/21 16:28:05;;;;;;;;;;;;;;;;;;5078200;28;19916;-78
2022/08/21 16:30:30;;;;;;;;;;;;;;;;;;5061796;28;20435;-79
2022/08/21 16:32:55;;;;;;;;;;;;;;;;;;5095433;28;19916;-78
2022/08/21 16:35:21;;;;;;;;;;;;;;;;;;5078625;28;19920;-78
2022/08/21 16:37:47;;;;;;;;;;;;;;;;;;5079030;28;19961;-79
2022/08/21 16:40:12;;;;;;;;;;;;;;;;;;5078707;28;19919;-80
2022/08/21 16:42:38;;;;;;;;;;;;;;;;;;5078349;28;20000;-79
2022/08/21 16:45:05;;;;;;;;;;;;;;;;;;5078357;28;20347;-79
2022/08/21 16:47:30;;;;;;;;;;;;;;;;;;5062109;28;20274;-79